createdAt,value
2024-02-19T00:01:55.460Z,7.70
2024-02-19T00:04:27.928Z,7.73
2024-02-19T00:07:00.498Z,7.76
2024-02-19T00:09:32.932Z,7.77
2024-02-19T00:12:05.886Z,7.76
2024-02-19T00:14:38.172Z,7.76
2024-02-19T00:17:10.594Z,7.75
2024-02-19T00:19:42.927Z,7.74
2024-02-19T00:22:15.651Z,7.72
2024-02-19T00:24:48.114Z,7.71
2024-02-19T00:27:20.813Z,7.70
2024-02-19T00:29:53.715Z,7.70
2024-02-19T00:32:26.068Z,7.72
2024-02-19T00:34:58.418Z,7.73
2024-02-19T00:37:30.748Z,7.74
2024-02-19T00:40:04.414Z,7.75
2024-02-19T00:42:37.129Z,7.75
2024-02-19T00:45:11.196Z,7.76
2024-02-19T00:47:43.565Z,7.76
2024-02-19T00:50:15.896Z,7.76
2024-02-19T00:52:48.212Z,7.76
2024-02-19T00:55:24.017Z,7.79
2024-02-19T00:57:54.718Z,7.81
2024-02-19T01:00:27.896Z,7.83
2024-02-19T01:03:00.526Z,7.85
2024-02-19T01:05:33.553Z,7.86
2024-02-19T01:08:06.280Z,7.86
2024-02-19T01:10:38.564Z,7.85
2024-02-19T01:13:11.180Z,7.84
2024-02-19T01:15:43.556Z,7.85
2024-02-19T01:18:16.918Z,7.87
2024-02-19T01:20:49.118Z,7.89
2024-02-19T01:23:21.508Z,7.91
2024-02-19T01:25:54.660Z,7.93
2024-02-19T01:28:27.018Z,7.94
2024-02-19T01:30:59.998Z,7.94
2024-02-19T01:33:35.340Z,7.94
2024-02-19T01:36:08.475Z,7.93
2024-02-19T01:38:42.783Z,7.92
2024-02-19T01:41:15.196Z,7.92
2024-02-19T01:43:47.480Z,7.94
2024-02-19T01:46:19.900Z,7.95
2024-02-19T01:48:52.943Z,7.97
2024-02-19T01:51:26.097Z,7.98
2024-02-19T01:53:59.631Z,7.99
2024-02-19T01:56:32.611Z,7.99
2024-02-19T01:59:08.690Z,7.98
2024-02-19T02:01:42.267Z,7.97
2024-02-19T02:04:17.135Z,7.98
2024-02-19T02:06:50.446Z,8.00
2024-02-19T02:09:23.374Z,8.01
2024-02-19T02:11:56.149Z,8.03
2024-02-19T02:14:29.066Z,8.04
2024-02-19T02:17:01.307Z,8.06
2024-02-19T02:19:33.740Z,8.04
2024-02-19T02:22:06.819Z,8.03
2024-02-19T02:24:39.692Z,8.01
2024-02-19T02:27:12.247Z,8.01
2024-02-19T02:29:44.572Z,8.02
2024-02-19T02:32:16.769Z,8.04
2024-02-19T02:34:49.210Z,8.06
2024-02-19T02:37:21.957Z,8.07
2024-02-19T02:39:54.266Z,8.08
2024-02-19T02:42:26.532Z,8.08
2024-02-19T02:44:58.856Z,8.09
2024-02-19T02:47:31.161Z,8.08
2024-02-19T02:50:03.429Z,8.08
2024-02-19T02:52:35.696Z,8.08
2024-02-19T02:55:09.547Z,8.09
2024-02-19T02:57:41.885Z,8.12
2024-02-19T03:00:15.928Z,8.14
2024-02-19T03:02:48.304Z,8.16
2024-02-19T03:05:20.853Z,8.18
2024-02-19T03:07:53.103Z,8.18
2024-02-19T03:10:25.854Z,8.19
2024-02-19T03:12:58.223Z,8.22
2024-02-19T03:15:30.500Z,8.24
2024-02-19T03:18:03.409Z,8.26
2024-02-19T03:20:36.102Z,8.28
2024-02-19T03:23:08.450Z,8.29
2024-02-19T03:25:40.744Z,8.30
2024-02-19T03:28:13.019Z,8.29
2024-02-19T03:30:45.441Z,8.29
2024-02-19T03:33:17.996Z,8.29
2024-02-19T03:35:52.963Z,8.30
2024-02-19T03:38:26.779Z,8.32
2024-02-19T03:40:59.196Z,8.34
2024-02-19T03:43:31.449Z,8.36
2024-02-19T03:46:06.699Z,8.38
2024-02-19T03:48:39.502Z,8.39
2024-02-19T03:51:12.458Z,8.39
2024-02-19T03:53:44.751Z,8.40
2024-02-19T03:56:17.098Z,8.41
2024-02-19T03:58:49.787Z,8.43
2024-02-19T04:01:22.108Z,8.46
2024-02-19T04:03:55.015Z,8.47
2024-02-19T04:06:27.525Z,8.48
2024-02-19T04:08:59.944Z,8.48
2024-02-19T04:11:32.363Z,8.47
2024-02-19T04:14:04.641Z,8.48
2024-02-19T04:16:36.862Z,8.49
2024-02-19T04:19:09.288Z,8.51
2024-02-19T04:21:47.819Z,8.52
2024-02-19T04:24:20.112Z,8.54
2024-02-19T04:26:52.315Z,8.55
2024-02-19T04:29:24.624Z,8.56
2024-02-19T04:31:57.196Z,8.55
2024-02-19T04:34:29.720Z,8.55
2024-02-19T04:37:03.921Z,8.56
2024-02-19T04:39:38.100Z,8.56
2024-02-19T04:42:10.670Z,8.58
2024-02-19T04:44:42.931Z,8.59
2024-02-19T04:47:15.218Z,8.61
2024-02-19T04:49:48.676Z,8.61
2024-02-19T04:52:20.950Z,8.61
2024-02-19T04:54:53.462Z,8.62
2024-02-19T04:57:25.778Z,8.64
2024-02-19T04:59:58.118Z,8.66
2024-02-19T05:02:30.434Z,8.68
2024-02-19T05:05:02.843Z,8.71
2024-02-19T05:07:35.829Z,8.73
2024-02-19T05:10:10.301Z,8.75
2024-02-19T05:12:42.663Z,8.74
2024-02-19T05:15:15.204Z,8.74
2024-02-19T05:17:47.483Z,8.75
2024-02-19T05:20:19.984Z,8.77
2024-02-19T05:22:53.025Z,8.78
2024-02-19T05:25:25.324Z,8.80
2024-02-19T05:27:59.681Z,8.81
2024-02-19T05:30:32.008Z,8.83
2024-02-19T05:33:04.280Z,8.83
2024-02-19T05:35:36.707Z,8.82
2024-02-19T05:38:09.863Z,8.82
2024-02-19T05:40:42.237Z,8.81
2024-02-19T05:43:15.030Z,8.80
2024-02-19T05:45:47.481Z,8.80
2024-02-19T05:48:19.945Z,8.80
2024-02-19T05:50:53.191Z,8.80
2024-02-19T05:53:25.729Z,8.78
2024-02-19T05:55:57.968Z,8.76
2024-02-19T05:58:30.227Z,8.75
2024-02-19T06:01:02.644Z,8.76
2024-02-19T06:03:36.946Z,8.75
2024-02-19T06:06:09.672Z,8.73
2024-02-19T06:08:44.692Z,8.72
2024-02-19T06:11:17.230Z,8.71
2024-02-19T06:13:49.564Z,8.71
2024-02-19T06:16:21.975Z,8.71
2024-02-19T06:18:54.512Z,8.69
2024-02-19T06:21:27.034Z,8.70
2024-02-19T06:23:59.489Z,8.73
2024-02-19T06:26:31.825Z,8.75
2024-02-19T06:29:04.693Z,8.76
2024-02-19T06:31:36.936Z,8.79
2024-02-19T06:34:09.448Z,8.81
2024-02-19T06:36:41.924Z,8.82
2024-02-19T06:39:14.302Z,8.84
2024-02-19T06:41:46.582Z,8.85
2024-02-19T06:44:18.843Z,8.84
2024-02-19T06:46:51.145Z,8.83
2024-02-19T06:49:23.893Z,8.85
2024-02-19T06:51:56.264Z,8.85
2024-02-19T06:54:31.337Z,8.85
2024-02-19T06:57:05.384Z,8.85
2024-02-19T06:59:37.654Z,8.86
2024-02-19T07:02:10.247Z,8.86
2024-02-19T07:04:43.299Z,8.84
2024-02-19T07:07:16.009Z,8.81
2024-02-19T07:09:48.628Z,8.81
2024-02-19T07:12:20.928Z,8.83
2024-02-19T07:14:53.178Z,8.84
2024-02-19T07:17:25.523Z,8.85
2024-02-19T07:19:57.968Z,8.85
2024-02-19T07:22:30.497Z,8.84
2024-02-19T07:25:10.404Z,8.84
2024-02-19T07:27:49.831Z,8.81
2024-02-19T07:30:22.831Z,8.82
2024-02-19T07:32:55.414Z,8.81
2024-02-19T07:35:27.849Z,8.82
2024-02-19T07:38:01.001Z,8.84
2024-02-19T07:40:35.456Z,8.84
2024-02-19T07:43:08.639Z,8.84
2024-02-19T07:45:41.518Z,8.81
2024-02-19T07:48:13.972Z,8.80
2024-02-19T07:50:46.423Z,8.79
2024-02-19T07:53:18.826Z,8.79
2024-02-19T07:55:51.279Z,8.80
2024-02-19T07:58:24.757Z,8.83
2024-02-19T08:00:57.243Z,8.85
2024-02-19T08:03:29.788Z,8.87
2024-02-19T08:06:02.226Z,8.88
2024-02-19T08:08:34.617Z,8.84
2024-02-19T08:11:07.206Z,8.80
2024-02-19T08:13:39.802Z,8.75
2024-02-19T08:16:12.322Z,8.71
2024-02-19T08:18:44.842Z,8.68
2024-02-19T08:21:18.021Z,8.65
2024-02-19T08:23:50.547Z,8.60
2024-02-19T08:26:23.473Z,8.55
2024-02-19T08:28:55.688Z,8.51
2024-02-19T08:31:28.912Z,8.47
2024-02-19T08:34:01.615Z,8.43
2024-02-19T08:36:34.506Z,8.38
2024-02-19T08:39:06.989Z,8.36
2024-02-19T08:41:39.375Z,8.32
2024-02-19T08:44:11.529Z,8.31
2024-02-19T08:46:43.737Z,8.32
2024-02-19T08:49:16.162Z,8.34
2024-02-19T08:51:48.581Z,8.35
2024-02-19T08:54:20.773Z,8.35
2024-02-19T08:56:53.126Z,8.33
2024-02-19T08:59:25.389Z,8.32
2024-02-19T09:01:59.010Z,8.31
2024-02-19T09:04:32.118Z,8.31
2024-02-19T09:07:05.774Z,8.33
2024-02-19T09:09:38.422Z,8.35
2024-02-19T09:12:11.612Z,8.31
2024-02-19T09:14:43.813Z,8.25
2024-02-19T09:17:16.461Z,8.18
2024-02-19T09:19:48.828Z,8.14
2024-02-19T09:22:21.939Z,8.11
2024-02-19T09:24:54.370Z,8.08
2024-02-19T09:27:26.763Z,8.06
2024-02-19T09:29:59.096Z,8.07
2024-02-19T09:32:31.478Z,8.06
2024-02-19T09:35:05.040Z,8.04
2024-02-19T09:37:37.442Z,8.00
2024-02-19T09:40:14.573Z,7.97
2024-02-19T09:42:48.968Z,7.94
2024-02-19T09:45:22.676Z,7.90
2024-02-19T09:48:00.918Z,7.89
2024-02-19T09:50:34.190Z,7.87
2024-02-19T09:53:13.505Z,7.86
2024-02-19T09:55:46.378Z,7.82
2024-02-19T09:58:18.925Z,7.80
2024-02-19T10:00:51.557Z,7.70
2024-02-19T10:03:24.379Z,7.60
2024-02-19T10:05:56.808Z,7.55
2024-02-19T10:08:29.209Z,7.54
2024-02-19T10:11:08.209Z,7.53
2024-02-19T10:13:43.078Z,7.51
2024-02-19T10:16:15.745Z,7.50
2024-02-19T10:18:48.203Z,7.51
2024-02-19T10:21:20.951Z,7.51
2024-02-19T10:23:53.215Z,7.52
2024-02-19T10:26:25.879Z,7.53
2024-02-19T10:28:59.434Z,7.55
2024-02-19T10:31:32.814Z,7.52
2024-02-19T10:34:05.305Z,7.50
2024-02-19T10:36:38.534Z,7.47
2024-02-19T10:39:11.257Z,7.47
2024-02-19T10:41:43.492Z,7.44
2024-02-19T10:44:18.416Z,7.43
2024-02-19T10:46:51.221Z,7.41
2024-02-19T10:49:24.586Z,7.41
2024-02-19T10:51:58.408Z,7.41
2024-02-19T10:54:31.343Z,7.41
2024-02-19T10:57:10.197Z,7.41
2024-02-19T10:59:44.392Z,7.37
2024-02-19T11:02:26.783Z,7.33
2024-02-19T11:05:02.491Z,7.30
2024-02-19T11:07:36.443Z,7.28
2024-02-19T11:10:11.009Z,7.24
2024-02-19T11:12:44.376Z,7.23
2024-02-19T11:15:21.906Z,7.23
2024-02-19T11:17:59.679Z,7.25
2024-02-19T11:20:33.300Z,7.26
2024-02-19T11:23:05.830Z,7.23
2024-02-19T11:25:39.300Z,7.22
2024-02-19T11:28:12.684Z,7.22
2024-02-19T11:30:47.220Z,7.22
2024-02-19T11:33:19.488Z,7.23
2024-02-19T11:35:51.905Z,7.25
2024-02-19T11:38:24.778Z,7.28
2024-02-19T11:40:57.567Z,7.30
2024-02-19T11:43:30.295Z,7.34
2024-02-19T11:46:02.765Z,7.38
2024-02-19T11:48:37.652Z,7.40
2024-02-19T11:51:11.112Z,7.43
2024-02-19T11:53:43.523Z,7.44
2024-02-19T11:56:19.529Z,7.48
2024-02-19T11:58:51.585Z,7.49
2024-02-19T12:01:25.455Z,7.50
2024-02-19T12:03:58.048Z,7.49
2024-02-19T12:06:30.927Z,7.47
2024-02-19T12:09:03.747Z,7.45
2024-02-19T12:11:36.899Z,7.42
2024-02-19T12:14:10.131Z,7.37
2024-02-19T12:16:43.039Z,7.34
2024-02-19T12:19:15.307Z,7.33
2024-02-19T12:21:47.658Z,7.35
2024-02-19T12:24:20.457Z,7.36
2024-02-19T12:26:52.865Z,7.36
2024-02-19T12:29:25.264Z,7.32
2024-02-19T12:31:57.613Z,7.29
2024-02-19T12:34:30.011Z,7.27
2024-02-19T12:37:02.592Z,7.27
2024-02-19T12:39:35.707Z,7.28
2024-02-19T12:42:11.283Z,7.27
2024-02-19T12:44:44.083Z,7.31
2024-02-19T12:47:16.744Z,7.34
2024-02-19T12:49:50.055Z,7.37
2024-02-19T12:52:28.780Z,7.39
2024-02-19T12:55:01.536Z,7.41
2024-02-19T12:57:33.861Z,7.41
2024-02-19T13:00:09.372Z,7.42
2024-02-19T13:02:41.997Z,7.39
2024-02-19T13:05:14.409Z,7.33
2024-02-19T13:07:49.368Z,7.29
2024-02-19T13:10:22.108Z,7.28
2024-02-19T13:12:54.704Z,7.30
2024-02-19T13:15:27.024Z,7.33
2024-02-19T13:17:59.415Z,7.36
2024-02-19T13:20:32.740Z,7.40
2024-02-19T13:23:05.437Z,7.40
2024-02-19T13:25:37.711Z,7.36
2024-02-19T13:28:11.820Z,7.31
2024-02-19T13:30:45.009Z,7.30
2024-02-19T13:33:17.665Z,7.29
2024-02-19T13:35:50.085Z,7.28
2024-02-19T13:38:23.212Z,7.29
2024-02-19T13:40:57.078Z,7.29
2024-02-19T13:43:29.923Z,7.30
2024-02-19T13:46:05.346Z,7.28
2024-02-19T13:48:37.268Z,7.24
2024-02-19T13:51:10.075Z,7.23
2024-02-19T13:53:42.660Z,7.20
2024-02-19T13:56:15.078Z,7.21
2024-02-19T13:58:47.498Z,7.22
2024-02-19T14:01:20.217Z,7.25
2024-02-19T14:03:52.909Z,7.28
2024-02-19T14:06:25.937Z,7.31
2024-02-19T14:08:58.535Z,7.36
2024-02-19T14:11:31.251Z,7.39
2024-02-19T14:14:04.976Z,7.39
2024-02-19T14:16:40.376Z,7.41
2024-02-19T14:19:12.815Z,7.43
2024-02-19T14:21:45.238Z,7.44
2024-02-19T14:24:18.088Z,7.47
2024-02-19T14:26:50.862Z,7.49
2024-02-19T14:29:23.769Z,7.50
2024-02-19T14:31:56.614Z,7.52
2024-02-19T14:34:29.027Z,7.51
2024-02-19T14:37:01.729Z,7.49
2024-02-19T14:39:34.274Z,7.48
2024-02-19T14:42:06.949Z,7.51
2024-02-19T14:44:39.360Z,7.53
2024-02-19T14:47:12.499Z,7.57
2024-02-19T14:49:44.866Z,7.59
2024-02-19T14:52:17.423Z,7.58
2024-02-19T14:54:50.597Z,7.59
2024-02-19T14:57:22.957Z,7.60
2024-02-19T14:59:55.297Z,7.61
2024-02-19T15:02:27.640Z,7.67
2024-02-19T15:05:00.886Z,7.73
2024-02-19T15:07:33.707Z,7.76
2024-02-19T15:10:07.743Z,7.77
2024-02-19T15:12:40.097Z,7.76
2024-02-19T15:15:15.479Z,7.76
2024-02-19T15:17:48.090Z,7.71
2024-02-19T15:20:20.836Z,7.71
2024-02-19T15:22:53.418Z,7.73
2024-02-19T15:25:25.827Z,7.76
2024-02-19T15:27:58.433Z,7.77
2024-02-19T15:30:31.237Z,7.78
2024-02-19T15:33:03.785Z,7.77
2024-02-19T15:35:36.250Z,7.77
2024-02-19T15:38:10.306Z,7.80
2024-02-19T15:40:43.668Z,7.80
2024-02-19T15:43:15.998Z,7.82
2024-02-19T15:45:48.424Z,7.82
2024-02-19T15:48:20.872Z,7.83
2024-02-19T15:50:54.471Z,7.83
2024-02-19T15:53:29.273Z,7.84
2024-02-19T15:56:02.059Z,7.84
2024-02-19T15:58:35.705Z,7.86
2024-02-19T16:01:09.006Z,7.88
2024-02-19T16:03:41.551Z,7.87
2024-02-19T16:06:14.706Z,7.85
2024-02-19T16:08:48.037Z,7.83
2024-02-19T16:11:20.489Z,7.80
2024-02-19T16:13:53.283Z,7.78
2024-02-19T16:16:25.877Z,7.79
2024-02-19T16:18:58.352Z,7.81
2024-02-19T16:21:30.831Z,7.82
2024-02-19T16:24:03.202Z,7.81
2024-02-19T16:26:35.496Z,7.79
2024-02-19T16:29:07.950Z,7.80
2024-02-19T16:31:40.360Z,7.82
2024-02-19T16:34:13.503Z,7.83
2024-02-19T16:36:46.474Z,7.85
2024-02-19T16:39:18.866Z,7.84
2024-02-19T16:41:52.147Z,7.84
2024-02-19T16:44:24.912Z,7.84
2024-02-19T16:46:57.557Z,7.83
2024-02-19T16:49:29.921Z,7.83
2024-02-19T16:52:02.960Z,7.84
2024-02-19T16:54:35.307Z,7.86
2024-02-19T16:57:08.081Z,7.91
2024-02-19T16:59:40.906Z,7.95
2024-02-19T17:02:14.020Z,7.97
2024-02-19T17:04:49.708Z,8.01
2024-02-19T17:07:23.107Z,8.02
2024-02-19T17:09:55.620Z,8.03
2024-02-19T17:12:30.097Z,8.08
2024-02-19T17:15:04.022Z,8.13
2024-02-19T17:17:36.853Z,8.14
2024-02-19T17:20:11.555Z,8.14
2024-02-19T17:22:44.164Z,8.13
2024-02-19T17:25:16.534Z,8.13
2024-02-19T17:27:49.879Z,8.12
2024-02-19T17:30:22.669Z,8.10
2024-02-19T17:32:55.200Z,8.10
2024-02-19T17:35:29.212Z,8.09
2024-02-19T17:38:02.158Z,8.11
2024-02-19T17:40:35.137Z,8.14
2024-02-19T17:43:08.416Z,8.14
2024-02-19T17:45:41.779Z,8.16
2024-02-19T17:48:15.882Z,8.18
2024-02-19T17:50:51.642Z,8.18
2024-02-19T17:53:23.853Z,8.20
2024-02-19T17:55:56.124Z,8.18
2024-02-19T17:58:28.607Z,8.14
2024-02-19T18:01:01.402Z,8.11
2024-02-19T18:03:33.837Z,8.07
2024-02-19T18:06:09.481Z,8.03
2024-02-19T18:08:42.148Z,8.00
2024-02-19T18:11:14.887Z,7.96
2024-02-19T18:13:47.211Z,7.95
2024-02-19T18:16:20.003Z,7.96
2024-02-19T18:18:52.530Z,7.96
2024-02-19T18:21:25.033Z,7.97
2024-02-19T18:23:58.969Z,7.99
2024-02-19T18:26:32.286Z,8.02
2024-02-19T18:29:04.673Z,8.04
2024-02-19T18:31:39.021Z,8.05
2024-02-19T18:34:11.612Z,8.08
2024-02-19T18:36:44.065Z,8.13
2024-02-19T18:39:16.521Z,8.16
2024-02-19T18:41:50.806Z,8.21
2024-02-19T18:44:23.838Z,8.25
2024-02-19T18:46:56.219Z,8.28
2024-02-19T18:49:32.992Z,8.31
2024-02-19T18:52:07.449Z,8.34
2024-02-19T18:54:39.985Z,8.40
2024-02-19T18:57:12.263Z,8.43
2024-02-19T18:59:45.012Z,8.47
2024-02-19T19:02:17.539Z,8.50
2024-02-19T19:04:50.202Z,8.53
2024-02-19T19:07:23.244Z,8.54
2024-02-19T19:09:58.165Z,8.54
2024-02-19T19:12:32.388Z,8.53
2024-02-19T19:15:08.947Z,8.53
2024-02-19T19:17:42.050Z,8.53
2024-02-19T19:20:15.579Z,8.54
2024-02-19T19:22:48.123Z,8.55
2024-02-19T19:25:21.337Z,8.55
2024-02-19T19:27:54.259Z,8.54
2024-02-19T19:30:27.111Z,8.53
2024-02-19T19:32:59.598Z,8.53
2024-02-19T19:35:32.682Z,8.53
2024-02-19T19:38:05.731Z,8.53
2024-02-19T19:40:38.249Z,8.52
2024-02-19T19:43:11.113Z,8.52
2024-02-19T19:45:43.639Z,8.52
2024-02-19T19:48:16.842Z,8.53
2024-02-19T19:50:49.284Z,8.53
2024-02-19T19:53:21.591Z,8.52
2024-02-19T19:55:55.283Z,8.50
2024-02-19T19:58:32.361Z,8.47
2024-02-19T20:01:06.256Z,8.46
2024-02-19T20:03:39.167Z,8.46
2024-02-19T20:06:12.219Z,8.43
2024-02-19T20:08:47.694Z,8.42
2024-02-19T20:11:20.097Z,8.40
2024-02-19T20:13:52.457Z,8.40
2024-02-19T20:16:25.890Z,8.40
2024-02-19T20:18:58.482Z,8.40
2024-02-19T20:21:30.951Z,8.40
2024-02-19T20:24:03.609Z,8.41
2024-02-19T20:26:39.040Z,8.41
2024-02-19T20:29:12.588Z,8.41
2024-02-19T20:31:44.941Z,8.41
2024-02-19T20:34:17.542Z,8.41
2024-02-19T20:36:50.075Z,8.41
2024-02-19T20:39:22.593Z,8.40
2024-02-19T20:41:55.832Z,8.38
2024-02-19T20:44:28.225Z,8.37
2024-02-19T20:47:00.809Z,8.39
2024-02-19T20:49:34.254Z,8.41
2024-02-19T20:52:07.760Z,8.43
2024-02-19T20:54:40.298Z,8.47
2024-02-19T20:57:13.234Z,8.48
2024-02-19T20:59:45.774Z,8.49
2024-02-19T21:02:18.645Z,8.50
2024-02-19T21:04:52.235Z,8.49
2024-02-19T21:07:24.981Z,8.50
2024-02-19T21:10:01.070Z,8.51
2024-02-19T21:12:33.577Z,8.53
2024-02-19T21:15:07.270Z,8.56
2024-02-19T21:17:39.888Z,8.57
2024-02-19T21:20:15.053Z,8.59
2024-02-19T21:22:47.779Z,8.59
2024-02-19T21:25:20.444Z,8.58
2024-02-19T21:27:52.885Z,8.58
2024-02-19T21:30:25.296Z,8.57
2024-02-19T21:32:57.554Z,8.58
2024-02-19T21:35:29.869Z,8.60
2024-02-19T21:38:02.239Z,8.61
2024-02-19T21:40:34.808Z,8.61
2024-02-19T21:43:08.602Z,8.62
2024-02-19T21:45:41.376Z,8.61
2024-02-19T21:48:14.027Z,8.61
2024-02-19T21:50:46.287Z,8.60
2024-02-19T21:53:18.802Z,8.61
2024-02-19T21:55:51.148Z,8.61
2024-02-19T21:58:23.920Z,8.62
2024-02-19T22:00:56.296Z,8.63
2024-02-19T22:03:28.619Z,8.63
2024-02-19T22:06:01.516Z,8.63
2024-02-19T22:08:33.870Z,8.60
2024-02-19T22:11:06.371Z,8.59
2024-02-19T22:13:38.821Z,8.61
2024-02-19T22:16:11.679Z,8.63
2024-02-19T22:18:45.785Z,8.63
2024-02-19T22:21:18.062Z,8.64
2024-02-19T22:23:50.455Z,8.64
2024-02-19T22:26:23.077Z,8.63
2024-02-19T22:28:55.718Z,8.63
2024-02-19T22:31:27.989Z,8.62
2024-02-19T22:34:00.444Z,8.63
2024-02-19T22:36:32.932Z,8.66
2024-02-19T22:39:06.698Z,8.68
2024-02-19T22:41:42.323Z,8.66
2024-02-19T22:44:14.560Z,8.62
2024-02-19T22:46:46.778Z,8.60
2024-02-19T22:49:19.133Z,8.58
2024-02-19T22:51:51.617Z,8.58
2024-02-19T22:54:23.967Z,8.55
2024-02-19T22:56:56.388Z,8.51
2024-02-19T22:59:28.737Z,8.49
2024-02-19T23:02:01.528Z,8.44
2024-02-19T23:04:34.282Z,8.42
2024-02-19T23:07:07.139Z,8.43
2024-02-19T23:09:39.526Z,8.43
2024-02-19T23:12:12.724Z,8.41
2024-02-19T23:14:45.035Z,8.40
2024-02-19T23:17:17.194Z,8.38
2024-02-19T23:19:49.508Z,8.36
2024-02-19T23:22:21.814Z,8.34
2024-02-19T23:24:55.424Z,8.34
2024-02-19T23:27:27.801Z,8.37
2024-02-19T23:30:00.012Z,8.39
2024-02-19T23:32:33.077Z,8.41
2024-02-19T23:35:06.655Z,8.43
2024-02-19T23:37:39.082Z,8.43
2024-02-19T23:40:18.935Z,8.42
2024-02-19T23:42:51.704Z,8.42
2024-02-19T23:45:24.160Z,8.46
2024-02-19T23:47:56.604Z,8.48
2024-02-19T23:50:29.709Z,8.49
2024-02-19T23:53:02.061Z,8.51
2024-02-19T23:55:34.374Z,8.54
2024-02-19T23:58:06.945Z,8.55
